Time;durP1;ratioP1;P1;durP2;ratioP2;P2;SDS_P1;SDS_P2;PMS_P1;PMS_P2;Temp;Humidity;BMP_temperature;BMP_pressure;BME280_temperature;BME280_humidity;BME280_pressure;Samples;Min_cycle;Max_cycle;Signal;HPM_P1;HPM_P2
2023/05/13 00:01:40;;;;;;;3.13;1.83;;;;;;;;;;5084918;28;20468;-84
2023/05/13 00:04:07;;;;;;;2.95;1.98;;;;;;;;;;5113683;27;20032;-82
2023/05/13 00:06:33;;;;;;;2.83;1.95;;;;;;;;;;5082354;28;20032;-83
2023/05/13 00:08:59;;;;;;;3.33;1.83;;;;;;;;;;5079305;28;20036;-84
2023/05/13 00:11:25;;;;;;;3.80;2.10;;;;;;;;;;5073627;28;20160;-86
2023/05/13 00:13:50;;;;;;;2.88;1.70;;;;;;;;;;5081972;28;20060;-84
2023/05/13 00:16:16;;;;;;;2.33;1.60;;;;;;;;;;5078900;28;20035;-83
2023/05/13 00:18:41;;;;;;;2.55;1.67;;;;;;;;;;5079216;28;20024;-82
2023/05/13 00:21:07;;;;;;;3.65;2.20;;;;;;;;;;5080111;28;20365;-81
2023/05/13 00:23:33;;;;;;;11.65;4.03;;;;;;;;;;5083627;28;20056;-81
2023/05/13 00:25:58;;;;;;;5.45;3.25;;;;;;;;;;5081493;28;20096;-81
2023/05/13 00:28:25;;;;;;;7.15;4.38;;;;;;;;;;5077344;28;20456;-82
2023/05/13 00:30:50;;;;;;;5.25;3.42;;;;;;;;;;5078649;28;20020;-82
2023/05/13 00:33:16;;;;;;;5.82;3.63;;;;;;;;;;5085441;28;20356;-83
2023/05/13 00:35:42;;;;;;;5.97;3.08;;;;;;;;;;5081494;28;20035;-84
2023/05/13 00:38:07;;;;;;;6.93;3.72;;;;;;;;;;5082643;28;20043;-83
2023/05/13 00:40:38;;;;;;;7.45;4.18;;;;;;;;;;5078684;28;20106;-83
2023/05/13 00:43:04;;;;;;;5.82;3.30;;;;;;;;;;5074361;28;20032;-82
2023/05/13 00:45:29;;;;;;;8.82;4.03;;;;;;;;;;5078481;28;20078;-81
2023/05/13 00:47:54;;;;;;;6.88;4.38;;;;;;;;;;5086005;28;20029;-81
2023/05/13 00:50:20;;;;;;;7.65;4.25;;;;;;;;;;5085514;28;20428;-83
2023/05/13 00:52:48;;;;;;;8.00;4.45;;;;;;;;;;5084875;28;20052;-82
2023/05/13 00:55:14;;;;;;;6.50;4.15;;;;;;;;;;5089926;28;20020;-82
2023/05/13 00:57:39;;;;;;;7.65;3.70;;;;;;;;;;5108936;27;20031;-85
2023/05/13 01:00:06;;;;;;;7.03;4.65;;;;;;;;;;5083647;28;20020;-84
2023/05/13 01:02:50;;;;;;;6.63;4.28;;;;;;;;;;5084381;28;20026;-83
2023/05/13 01:05:28;;;;;;;6.30;3.53;;;;;;;;;;5074621;28;20496;-84
2023/05/13 01:08:00;;;;;;;7.90;4.38;;;;;;;;;;5075438;28;20115;-83
2023/05/13 01:10:48;;;;;;;8.57;4.40;;;;;;;;;;5078451;28;20028;-83
2023/05/13 01:13:22;;;;;;;7.47;3.65;;;;;;;;;;5065870;28;20025;-83
2023/05/13 01:15:56;;;;;;;6.63;3.63;;;;;;;;;;5078523;28;20091;-82
2023/05/13 01:18:27;;;;;;;6.60;3.50;;;;;;;;;;5081066;28;20058;-82
2023/05/13 01:20:54;;;;;;;7.05;3.85;;;;;;;;;;5074867;28;20021;-83
2023/05/13 01:23:19;;;;;;;6.63;3.92;;;;;;;;;;5081882;28;20021;-83
2023/05/13 01:25:44;;;;;;;6.82;3.65;;;;;;;;;;5074310;28;20122;-83
2023/05/13 01:28:10;;;;;;;5.35;3.80;;;;;;;;;;5079676;28;20057;-83
2023/05/13 01:30:36;;;;;;;8.52;4.55;;;;;;;;;;5076917;28;20051;-83
2023/05/13 01:33:02;;;;;;;6.72;4.25;;;;;;;;;;5076239;28;20032;-83
2023/05/13 01:35:29;;;;;;;8.93;3.72;;;;;;;;;;5077357;28;21352;-82
2023/05/13 01:37:56;;;;;;;6.85;3.97;;;;;;;;;;5080350;28;20033;-83
2023/05/13 01:40:22;;;;;;;6.10;3.80;;;;;;;;;;5084666;28;20479;-82
2023/05/13 01:42:47;;;;;;;6.93;4.18;;;;;;;;;;5074617;28;20029;-82
2023/05/13 01:45:13;;;;;;;6.30;4.07;;;;;;;;;;5078693;28;20064;-82
2023/05/13 01:47:38;;;;;;;9.30;3.65;;;;;;;;;;5076058;28;20040;-82
2023/05/13 01:50:04;;;;;;;7.97;3.90;;;;;;;;;;5085095;28;20027;-82
2023/05/13 01:52:30;;;;;;;5.47;3.13;;;;;;;;;;5067462;28;20036;-83
2023/05/13 01:54:55;;;;;;;5.88;3.53;;;;;;;;;;5120423;27;20375;-83
2023/05/13 01:57:21;;;;;;;6.18;4.20;;;;;;;;;;5077804;28;20032;-83
2023/05/13 01:59:46;;;;;;;8.23;5.20;;;;;;;;;;5073935;28;20031;-83
2023/05/13 02:02:11;;;;;;;6.93;4.20;;;;;;;;;;5082722;28;20024;-82
2023/05/13 02:04:37;;;;;;;6.53;3.55;;;;;;;;;;5086414;28;20032;-83
2023/05/13 02:07:02;;;;;;;8.13;4.22;;;;;;;;;;5077798;28;20130;-82
2023/05/13 02:09:28;;;;;;;7.72;3.72;;;;;;;;;;5084444;28;20028;-82
2023/05/13 02:11:53;;;;;;;6.75;4.50;;;;;;;;;;5073794;28;20020;-83
2023/05/13 02:14:19;;;;;;;4.43;2.95;;;;;;;;;;5081312;28;20024;-83
2023/05/13 02:16:45;;;;;;;9.65;4.05;;;;;;;;;;5082811;28;20097;-82
2023/05/13 02:19:10;;;;;;;7.05;3.70;;;;;;;;;;5078669;28;20026;-84
2023/05/13 02:21:36;;;;;;;8.00;4.13;;;;;;;;;;5082578;28;20067;-83
2023/05/13 02:24:01;;;;;;;5.50;3.85;;;;;;;;;;5072882;28;20020;-83
2023/05/13 02:26:26;;;;;;;8.85;4.30;;;;;;;;;;5076743;28;20028;-82
2023/05/13 02:28:52;;;;;;;8.13;4.68;;;;;;;;;;5088041;28;20069;-82
2023/05/13 02:31:17;;;;;;;7.68;4.35;;;;;;;;;;5076377;28;20028;-82
2023/05/13 02:33:43;;;;;;;5.20;3.85;;;;;;;;;;5085900;28;20062;-82
2023/05/13 02:36:08;;;;;;;6.68;3.75;;;;;;;;;;5080245;28;20082;-82
2023/05/13 02:38:34;;;;;;;9.57;4.40;;;;;;;;;;5078100;28;20041;-82
2023/05/13 02:41:00;;;;;;;6.45;3.47;;;;;;;;;;5075674;28;20055;-81
2023/05/13 02:43:26;;;;;;;5.88;3.83;;;;;;;;;;5082156;28;20142;-81
2023/05/13 02:45:52;;;;;;;8.23;4.82;;;;;;;;;;5082086;28;20055;-82
2023/05/13 02:48:17;;;;;;;6.95;3.38;;;;;;;;;;5078780;28;20113;-81
2023/05/13 02:50:43;;;;;;;7.97;4.22;;;;;;;;;;5069896;28;20114;-82
2023/05/13 02:53:08;;;;;;;3.58;2.38;;;;;;;;;;5073897;28;20034;-82
2023/05/13 02:55:34;;;;;;;6.38;3.45;;;;;;;;;;5077813;28;20357;-82
2023/05/13 02:57:59;;;;;;;7.72;4.47;;;;;;;;;;5068281;28;20028;-82
2023/05/13 03:00:25;;;;;;;6.63;3.55;;;;;;;;;;5071384;28;20035;-82
2023/05/13 03:02:50;;;;;;;6.88;4.57;;;;;;;;;;5081171;28;20082;-81
2023/05/13 03:05:15;;;;;;;6.50;4.18;;;;;;;;;;5070428;28;20427;-82
2023/05/13 03:07:41;;;;;;;8.43;4.35;;;;;;;;;;5075015;28;20067;-82
2023/05/13 03:10:07;;;;;;;6.00;4.30;;;;;;;;;;5079577;28;20023;-82
2023/05/13 03:12:32;;;;;;;5.95;3.58;;;;;;;;;;5077710;28;20035;-82
2023/05/13 03:14:58;;;;;;;5.07;3.53;;;;;;;;;;5069931;28;20025;-82
2023/05/13 03:17:24;;;;;;;8.38;4.95;;;;;;;;;;5076656;28;20384;-81
2023/05/13 03:19:50;;;;;;;7.53;4.65;;;;;;;;;;5080843;28;20475;-82
2023/05/13 03:22:15;;;;;;;5.45;3.22;;;;;;;;;;5071008;28;20032;-82
2023/05/13 03:24:42;;;;;;;7.68;4.32;;;;;;;;;;5075865;28;20024;-83
2023/05/13 03:27:07;;;;;;;4.05;3.00;;;;;;;;;;5068129;28;20031;-83
2023/05/13 03:29:33;;;;;;;6.53;4.35;;;;;;;;;;5079336;28;20107;-83
2023/05/13 03:31:58;;;;;;;7.90;4.25;;;;;;;;;;5079157;28;20479;-82
2023/05/13 03:34:23;;;;;;;8.15;4.55;;;;;;;;;;5078254;28;20025;-83
2023/05/13 03:36:49;;;;;;;10.40;3.60;;;;;;;;;;5072012;28;21004;-82
2023/05/13 03:39:15;;;;;;;4.50;3.75;;;;;;;;;;5073580;28;20044;-82
2023/05/13 03:41:40;;;;;;;7.50;4.57;;;;;;;;;;5072127;28;20066;-83
2023/05/13 03:44:06;;;;;;;5.93;3.85;;;;;;;;;;5073642;28;20503;-82
2023/05/13 03:46:32;;;;;;;10.80;4.75;;;;;;;;;;5074829;28;20028;-82
2023/05/13 03:48:58;;;;;;;6.05;3.60;;;;;;;;;;5079575;28;20020;-82
2023/05/13 03:51:23;;;;;;;4.63;3.20;;;;;;;;;;5080231;28;20394;-82
2023/05/13 03:53:49;;;;;;;6.05;3.22;;;;;;;;;;5085040;28;20467;-82
2023/05/13 03:56:14;;;;;;;6.45;3.70;;;;;;;;;;5077838;28;20073;-82
2023/05/13 03:58:40;;;;;;;6.82;3.20;;;;;;;;;;5078965;28;20052;-82
2023/05/13 04:01:06;;;;;;;4.90;3.40;;;;;;;;;;5083362;28;20020;-82
2023/05/13 04:03:32;;;;;;;5.95;3.42;;;;;;;;;;5074632;28;20107;-81
2023/05/13 04:05:57;;;;;;;4.93;3.15;;;;;;;;;;5076239;28;20450;-83
2023/05/13 04:08:22;;;;;;;5.47;2.88;;;;;;;;;;5081031;28;20028;-82
2023/05/13 04:10:48;;;;;;;4.35;2.42;;;;;;;;;;5076501;28;20038;-82
2023/05/13 04:13:13;;;;;;;5.35;2.83;;;;;;;;;;5077782;28;20075;-82
2023/05/13 04:15:38;;;;;;;5.43;3.63;;;;;;;;;;5083859;28;20044;-81
2023/05/13 04:18:05;;;;;;;3.78;2.63;;;;;;;;;;5074999;28;20078;-82
2023/05/13 04:20:30;;;;;;;5.15;3.13;;;;;;;;;;5075142;28;20739;-82
2023/05/13 04:22:56;;;;;;;3.85;2.38;;;;;;;;;;5077235;28;20100;-81
2023/05/13 04:25:21;;;;;;;3.67;2.67;;;;;;;;;;5078806;28;20028;-81
2023/05/13 04:27:46;;;;;;;5.25;3.42;;;;;;;;;;5073990;28;20488;-81
2023/05/13 04:30:12;;;;;;;4.07;2.58;;;;;;;;;;5074258;28;20024;-81
2023/05/13 04:32:38;;;;;;;6.05;3.42;;;;;;;;;;5085406;28;20054;-82
2023/05/13 04:35:06;;;;;;;4.65;3.13;;;;;;;;;;5081020;28;20020;-82
2023/05/13 04:37:31;;;;;;;4.72;2.75;;;;;;;;;;5077425;28;20542;-83
2023/05/13 04:39:57;;;;;;;5.55;3.40;;;;;;;;;;5080803;28;20032;-81
2023/05/13 04:42:22;;;;;;;12.20;4.82;;;;;;;;;;5070999;28;20020;-81
2023/05/13 04:44:47;;;;;;;8.82;5.43;;;;;;;;;;5080271;28;20051;-82
2023/05/13 04:47:13;;;;;;;5.20;3.10;;;;;;;;;;5083382;28;20391;-81
2023/05/13 04:49:38;;;;;;;5.80;3.75;;;;;;;;;;5073936;28;20101;-82
2023/05/13 04:52:05;;;;;;;4.72;3.33;;;;;;;;;;5080259;28;20024;-82
2023/05/13 04:54:32;;;;;;;7.28;4.28;;;;;;;;;;5068426;28;20465;-81
2023/05/13 04:56:57;;;;;;;5.88;3.42;;;;;;;;;;5069803;28;20054;-82
2023/05/13 04:59:23;;;;;;;4.25;3.28;;;;;;;;;;5070309;28;20032;-83
2023/05/13 05:01:48;;;;;;;4.80;3.05;;;;;;;;;;5069584;28;20022;-82
2023/05/13 05:04:14;;;;;;;12.10;4.03;;;;;;;;;;5082645;28;20035;-81
2023/05/13 05:06:39;;;;;;;4.78;3.58;;;;;;;;;;5074478;28;20020;-82
2023/05/13 05:09:05;;;;;;;5.50;3.28;;;;;;;;;;5077823;28;20518;-82
2023/05/13 05:11:32;;;;;;;6.90;3.58;;;;;;;;;;5083188;28;20562;-82
2023/05/13 05:13:57;;;;;;;4.72;3.25;;;;;;;;;;5081903;28;20074;-82
2023/05/13 05:16:23;;;;;;;6.65;3.25;;;;;;;;;;5077224;28;20024;-82
2023/05/13 05:18:48;;;;;;;7.57;4.25;;;;;;;;;;5074257;28;20515;-83
2023/05/13 05:21:13;;;;;;;4.75;3.20;;;;;;;;;;5076662;28;20054;-83
2023/05/13 05:23:39;;;;;;;5.20;3.55;;;;;;;;;;5073982;28;20032;-82
2023/05/13 05:26:04;;;;;;;5.93;3.60;;;;;;;;;;5081735;28;20028;-83
2023/05/13 05:28:30;;;;;;;5.35;3.70;;;;;;;;;;5072697;28;20024;-83
2023/05/13 05:30:55;;;;;;;8.00;4.60;;;;;;;;;;5082828;28;20062;-83
2023/05/13 05:33:22;;;;;;;5.88;4.22;;;;;;;;;;5077177;28;20483;-84
2023/05/13 05:35:47;;;;;;;7.28;3.85;;;;;;;;;;5081201;28;20020;-86
2023/05/13 05:38:13;;;;;;;6.50;3.95;;;;;;;;;;5075258;28;20047;-83
2023/05/13 05:40:40;;;;;;;6.03;3.70;;;;;;;;;;5076740;28;20460;-83
2023/05/13 05:43:06;;;;;;;6.65;3.55;;;;;;;;;;5067306;28;20491;-83
2023/05/13 05:45:33;;;;;;;3.72;3.08;;;;;;;;;;5078999;28;20051;-84
2023/05/13 05:47:59;;;;;;;8.73;3.78;;;;;;;;;;5074132;28;20025;-84
2023/05/13 05:50:24;;;;;;;10.90;4.32;;;;;;;;;;5085168;28;20406;-82
2023/05/13 05:52:49;;;;;;;8.02;4.47;;;;;;;;;;5085235;28;20534;-85
2023/05/13 05:55:15;;;;;;;6.88;4.05;;;;;;;;;;5083147;28;20085;-84
2023/05/13 05:57:40;;;;;;;8.15;4.82;;;;;;;;;;5081323;28;20107;-84
2023/05/13 06:00:06;;;;;;;5.60;3.55;;;;;;;;;;5080135;28;20020;-84
2023/05/13 06:02:32;;;;;;;12.32;4.78;;;;;;;;;;5084123;28;20475;-83
2023/05/13 06:04:57;;;;;;;7.25;3.90;;;;;;;;;;5077758;28;20044;-82
2023/05/13 06:07:24;;;;;;;6.63;3.80;;;;;;;;;;5073525;28;20103;-84
2023/05/13 06:09:49;;;;;;;7.68;3.58;;;;;;;;;;5076827;28;20024;-84
2023/05/13 06:12:14;;;;;;;8.48;3.75;;;;;;;;;;5079674;28;20016;-83
2023/05/13 06:14:40;;;;;;;4.40;3.10;;;;;;;;;;5079583;28;20035;-83
2023/05/13 06:17:05;;;;;;;5.78;3.60;;;;;;;;;;5071644;28;20032;-82
2023/05/13 06:19:31;;;;;;;8.02;4.30;;;;;;;;;;5072752;28;20107;-82
2023/05/13 06:21:56;;;;;;;6.05;3.67;;;;;;;;;;5111687;27;20035;-82
2023/05/13 06:24:21;;;;;;;6.22;3.63;;;;;;;;;;5077607;28;20104;-82
2023/05/13 06:26:47;;;;;;;8.02;4.93;;;;;;;;;;5074162;28;20021;-87
2023/05/13 06:29:12;;;;;;;6.65;3.67;;;;;;;;;;5078716;28;20021;-83
2023/05/13 06:31:37;;;;;;;8.88;4.65;;;;;;;;;;5075657;28;20032;-83
2023/05/13 06:34:03;;;;;;;6.00;3.88;;;;;;;;;;5079590;28;20028;-83
2023/05/13 06:36:28;;;;;;;8.65;4.05;;;;;;;;;;5081902;28;20131;-81
2023/05/13 06:38:54;;;;;;;18.20;5.47;;;;;;;;;;5077951;28;20096;-83
2023/05/13 06:41:19;;;;;;;5.72;3.90;;;;;;;;;;5074440;28;20023;-83
2023/05/13 06:43:45;;;;;;;9.40;3.83;;;;;;;;;;5079806;28;20020;-83
2023/05/13 06:46:11;;;;;;;10.07;4.63;;;;;;;;;;5081402;28;20024;-84
2023/05/13 06:48:37;;;;;;;6.18;4.22;;;;;;;;;;5073290;28;20048;-83
2023/05/13 06:51:04;;;;;;;5.55;3.92;;;;;;;;;;5082512;28;20491;-84
2023/05/13 06:53:30;;;;;;;9.90;4.10;;;;;;;;;;5076537;28;20039;-84
2023/05/13 06:55:56;;;;;;;9.75;3.97;;;;;;;;;;5076438;28;20054;-84
2023/05/13 06:58:21;;;;;;;7.85;3.90;;;;;;;;;;5080173;28;20048;-84
2023/05/13 07:00:47;;;;;;;8.35;4.18;;;;;;;;;;5080065;28;20073;-83
2023/05/13 07:03:12;;;;;;;6.32;4.18;;;;;;;;;;5072507;28;20074;-84
2023/05/13 07:05:37;;;;;;;6.40;4.28;;;;;;;;;;5081695;28;20469;-83
2023/05/13 07:08:07;;;;;;;8.65;4.47;;;;;;;;;;5072207;28;20035;-83
2023/05/13 07:10:33;;;;;;;8.93;5.38;;;;;;;;;;5079975;28;20020;-83
2023/05/13 07:13:00;;;;;;;9.68;5.45;;;;;;;;;;5076681;28;20083;-83
2023/05/13 07:15:25;;;;;;;6.50;4.38;;;;;;;;;;5072886;28;20035;-83
2023/05/13 07:17:50;;;;;;;7.80;4.53;;;;;;;;;;5084179;28;20110;-83
2023/05/13 07:20:20;;;;;;;10.77;5.45;;;;;;;;;;5105759;28;20050;-83
2023/05/13 07:22:46;;;;;;;;;;;;;;;;;;5079350;28;20050;-82
2023/05/13 07:25:11;;;;;;;6.38;3.90;;;;;;;;;;5086508;28;19916;-82
2023/05/13 07:27:36;;;;;;;9.70;5.28;;;;;;;;;;5075353;28;20107;-83
2023/05/13 07:30:02;;;;;;;9.48;4.32;;;;;;;;;;5079990;28;20470;-83
2023/05/13 07:32:29;;;;;;;7.47;4.35;;;;;;;;;;5081089;28;20029;-82
2023/05/13 07:34:54;;;;;;;6.78;4.72;;;;;;;;;;5081898;28;20024;-82
2023/05/13 07:37:19;;;;;;;8.10;5.15;;;;;;;;;;5085792;28;20051;-82
2023/05/13 07:39:45;;;;;;;7.53;4.57;;;;;;;;;;5074248;28;20126;-83
2023/05/13 07:42:10;;;;;;;8.88;5.63;;;;;;;;;;5076815;28;20380;-81
2023/05/13 07:44:36;;;;;;;7.35;4.72;;;;;;;;;;5090980;28;20020;-82
2023/05/13 07:47:01;;;;;;;9.30;5.18;;;;;;;;;;5081556;28;20032;-82
2023/05/13 07:49:26;;;;;;;8.57;4.75;;;;;;;;;;5081438;28;20103;-84
2023/05/13 07:51:52;;;;;;;9.75;5.45;;;;;;;;;;5083344;28;20032;-84
2023/05/13 07:54:17;;;;;;;8.95;5.05;;;;;;;;;;5080121;28;20027;-84
2023/05/13 07:56:45;;;;;;;10.00;5.57;;;;;;;;;;5078063;28;20107;-84
2023/05/13 07:59:10;;;;;;;8.32;5.00;;;;;;;;;;5081878;28;20024;-83
2023/05/13 08:01:36;;;;;;;11.55;5.90;;;;;;;;;;5069398;28;20093;-84
2023/05/13 08:04:02;;;;;;;10.68;6.38;;;;;;;;;;5077352;28;20020;-86
2023/05/13 08:06:27;;;;;;;8.75;5.63;;;;;;;;;;5067680;28;20044;-84
2023/05/13 08:08:53;;;;;;;12.10;6.10;;;;;;;;;;5083696;28;20052;-83
2023/05/13 08:11:18;;;;;;;8.65;6.13;;;;;;;;;;5076978;28;20060;-83
2023/05/13 08:13:43;;;;;;;11.90;6.43;;;;;;;;;;5076713;28;20032;-84
2023/05/13 08:16:09;;;;;;;9.13;5.80;;;;;;;;;;5075802;28;20024;-87
2023/05/13 08:18:34;;;;;;;7.82;4.47;;;;;;;;;;5083511;28;20505;-88
2023/05/13 08:20:59;;;;;;;10.05;5.65;;;;;;;;;;5074120;28;20020;-86
2023/05/13 08:23:25;;;;;;;10.82;5.80;;;;;;;;;;5077045;28;20103;-87
2023/05/13 08:25:50;;;;;;;11.05;6.13;;;;;;;;;;5067296;28;20025;-85
2023/05/13 08:28:16;;;;;;;11.30;5.95;;;;;;;;;;5076470;28;20040;-86
2023/05/13 08:30:43;;;;;;;9.32;5.60;;;;;;;;;;5081378;28;20468;-86
2023/05/13 08:33:10;;;;;;;10.57;5.63;;;;;;;;;;5077810;28;20562;-87
2023/05/13 08:35:35;;;;;;;11.70;5.63;;;;;;;;;;5069999;28;20051;-85
2023/05/13 08:38:02;;;;;;;12.30;5.03;;;;;;;;;;5083521;28;20045;-87
2023/05/13 08:40:28;;;;;;;12.63;5.22;;;;;;;;;;5074965;28;20465;-89
2023/05/13 08:42:57;;;;;;;9.02;4.85;;;;;;;;;;5077695;28;20020;-86
2023/05/13 08:45:27;;;;;;;9.23;5.38;;;;;;;;;;5082567;28;20032;-85
2023/05/13 08:48:00;;;;;;;11.32;5.20;;;;;;;;;;5082262;28;20430;-85
2023/05/13 08:50:28;;;;;;;8.68;4.75;;;;;;;;;;5076007;28;20031;-85
2023/05/13 08:52:54;;;;;;;7.18;4.40;;;;;;;;;;5075004;28;20059;-84
2023/05/13 08:55:20;;;;;;;9.88;5.95;;;;;;;;;;5072806;28;20384;-84
2023/05/13 08:57:46;;;;;;;8.75;4.55;;;;;;;;;;5077363;28;20373;-85
2023/05/13 09:00:13;;;;;;;14.30;5.15;;;;;;;;;;5072933;28;20031;-84
2023/05/13 09:02:39;;;;;;;14.35;6.25;;;;;;;;;;5079029;28;20024;-84
2023/05/13 09:05:06;;;;;;;7.38;5.07;;;;;;;;;;5073473;28;20439;-84
2023/05/13 09:07:33;;;;;;;8.80;4.03;;;;;;;;;;5075408;28;20031;-84
2023/05/13 09:09:59;;;;;;;8.38;4.68;;;;;;;;;;5074132;28;20148;-83
2023/05/13 09:12:43;;;;;;;13.82;4.97;;;;;;;;;;5082500;28;20095;-84
2023/05/13 09:15:10;;;;;;;8.50;5.05;;;;;;;;;;5081155;28;20020;-84
2023/05/13 09:17:38;;;;;;;11.75;4.82;;;;;;;;;;5080723;28;20100;-85
2023/05/13 09:20:24;;;;;;;8.57;4.45;;;;;;;;;;5067740;28;20595;-85
2023/05/13 09:23:01;;;;;;;7.72;4.00;;;;;;;;;;5071809;28;20016;-86
2023/05/13 09:25:27;;;;;;;6.53;4.00;;;;;;;;;;5078890;28;20112;-88
2023/05/13 09:27:57;;;;;;;11.23;3.72;;;;;;;;;;5084296;28;20099;-87
2023/05/13 09:30:31;;;;;;;6.13;3.78;;;;;;;;;;5074288;28;20040;-86
2023/05/13 09:33:12;;;;;;;9.18;3.63;;;;;;;;;;5073099;28;20032;-84
2023/05/13 09:35:51;;;;;;;5.80;4.05;;;;;;;;;;5082960;28;20472;-86
2023/05/13 09:38:30;;;;;;;7.70;4.20;;;;;;;;;;5078878;28;20087;-85
2023/05/13 09:40:57;;;;;;;6.70;3.97;;;;;;;;;;5080115;28;20035;-88
2023/05/13 09:43:30;;;;;;;5.18;3.60;;;;;;;;;;5084470;28;20070;-87
2023/05/13 09:46:07;;;;;;;6.82;4.00;;;;;;;;;;5076560;28;20147;-84
2023/05/13 09:48:35;;;;;;;6.25;4.03;;;;;;;;;;5066076;28;20040;-86
2023/05/13 09:51:01;;;;;;;8.18;3.75;;;;;;;;;;5082804;28;20039;-84
2023/05/13 09:53:27;;;;;;;9.70;4.32;;;;;;;;;;5078662;28;20418;-85
2023/05/13 09:55:55;;;;;;;9.20;4.80;;;;;;;;;;5081146;28;20041;-83
2023/05/13 09:58:24;;;;;;;15.80;4.35;;;;;;;;;;5073393;28;20055;-83
2023/05/13 10:00:50;;;;;;;6.68;3.80;;;;;;;;;;5077861;28;20408;-85
2023/05/13 10:03:16;;;;;;;12.55;4.10;;;;;;;;;;5072230;28;20025;-85
2023/05/13 10:05:42;;;;;;;9.07;4.53;;;;;;;;;;5080457;28;20078;-84
2023/05/13 10:08:14;;;;;;;13.40;4.10;;;;;;;;;;5075713;28;20024;-85
2023/05/13 10:10:41;;;;;;;5.88;4.03;;;;;;;;;;5079924;28;20098;-85
2023/05/13 10:13:13;;;;;;;4.55;3.15;;;;;;;;;;5072476;28;20460;-84
2023/05/13 10:15:59;;;;;;;6.30;4.15;;;;;;;;;;5072534;28;20452;-85
2023/05/13 10:18:25;;;;;;;6.18;3.75;;;;;;;;;;5072141;28;20075;-84
2023/05/13 10:20:57;;;;;;;7.95;3.53;;;;;;;;;;5119044;27;20111;-86
2023/05/13 10:23:22;;;;;;;6.15;3.55;;;;;;;;;;5074807;28;20108;-86
2023/05/13 10:25:49;;;;;;;5.10;3.42;;;;;;;;;;5108519;27;20508;-84
2023/05/13 10:28:15;;;;;;;8.30;3.20;;;;;;;;;;5075716;28;20123;-83
2023/05/13 10:30:41;;;;;;;12.10;3.92;;;;;;;;;;5082530;28;20024;-84
2023/05/13 10:33:07;;;;;;;9.35;4.55;;;;;;;;;;5075560;28;20439;-85
2023/05/13 10:35:36;;;;;;;6.15;3.92;;;;;;;;;;5080153;28;20108;-85
2023/05/13 10:38:23;;;;;;;7.60;3.70;;;;;;;;;;5075786;28;20105;-85
2023/05/13 10:41:03;;;;;;;6.13;4.13;;;;;;;;;;5080641;28;20106;-85
2023/05/13 10:43:30;;;;;;;7.47;4.07;;;;;;;;;;5076526;28;20028;-83
2023/05/13 10:46:18;;;;;;;8.50;4.35;;;;;;;;;;5077016;28;20468;-85
2023/05/13 10:48:48;;;;;;;7.53;3.88;;;;;;;;;;5081785;28;20103;-86
2023/05/13 10:51:16;;;;;;;4.88;3.47;;;;;;;;;;5075467;28;20020;-84
2023/05/13 10:53:52;;;;;;;7.40;4.03;;;;;;;;;;5076925;28;20112;-84
2023/05/13 10:56:26;;;;;;;14.02;4.18;;;;;;;;;;5076668;28;20476;-84
2023/05/13 10:59:03;;;;;;;6.80;3.95;;;;;;;;;;5085095;28;20020;-84
2023/05/13 11:01:43;;;;;;;6.75;4.35;;;;;;;;;;5078281;28;20032;-84
2023/05/13 11:04:13;;;;;;;;;;;;;;;;;;5075060;28;20059;-83
2023/05/13 11:06:41;;;;;;;7.28;3.80;;;;;;;;;;5077251;28;19912;-84
2023/05/13 11:09:27;;;;;;;8.18;3.88;;;;;;;;;;5075591;28;20476;-83
2023/05/13 11:11:54;;;;;;;11.05;3.70;;;;;;;;;;5074873;28;20025;-83
2023/05/13 11:14:25;;;;;;;13.95;4.65;;;;;;;;;;5075827;28;20028;-83
2023/05/13 11:16:53;;;;;;;7.45;4.13;;;;;;;;;;5074669;28;20040;-84
2023/05/13 11:19:40;;;;;;;9.52;3.63;;;;;;;;;;5077223;28;20030;-84
2023/05/13 11:22:18;;;;;;;6.38;4.22;;;;;;;;;;5064271;28;20040;-84
2023/05/13 11:24:45;;;;;;;5.30;3.60;;;;;;;;;;5086343;28;20035;-83
2023/05/13 11:27:16;;;;;;;5.88;3.45;;;;;;;;;;5082574;28;20489;-83
2023/05/13 11:29:53;;;;;;;8.32;3.97;;;;;;;;;;5081917;28;20387;-84
2023/05/13 11:32:50;;;;;;;6.50;3.47;;;;;;;;;;5081221;28;20024;-83
2023/05/13 11:35:26;;;;;;;5.82;3.53;;;;;;;;;;5078142;28;20039;-82
2023/05/13 11:37:55;;;;;;;7.18;3.80;;;;;;;;;;5077479;28;20043;-80
2023/05/13 11:40:26;;;;;;;6.72;4.28;;;;;;;;;;5072396;28;20123;-84
2023/05/13 11:42:52;;;;;;;5.72;4.07;;;;;;;;;;5081563;28;20032;-82
2023/05/13 11:45:19;;;;;;;5.47;3.38;;;;;;;;;;5081502;28;20050;-81
2023/05/13 11:47:46;;;;;;;6.38;3.60;;;;;;;;;;5077173;28;20471;-83
2023/05/13 11:50:21;;;;;;;9.07;3.72;;;;;;;;;;5077744;28;20387;-83
2023/05/13 11:52:54;;;;;;;5.88;3.58;;;;;;;;;;5078040;28;20384;-85
2023/05/13 11:55:30;;;;;;;7.97;4.10;;;;;;;;;;5071352;28;20027;-86
2023/05/13 11:57:57;;;;;;;5.40;3.80;;;;;;;;;;5073066;28;20039;-85
2023/05/13 12:00:31;;;;;;;6.63;3.85;;;;;;;;;;5079134;28;20077;-86
2023/05/13 12:02:57;;;;;;;6.20;3.88;;;;;;;;;;5076591;28;20445;-86
2023/05/13 12:05:23;;;;;;;7.50;4.18;;;;;;;;;;5077657;28;20027;-86
2023/05/13 12:07:49;;;;;;;6.78;4.03;;;;;;;;;;5076385;28;20027;-86
2023/05/13 12:10:15;;;;;;;6.57;3.88;;;;;;;;;;5077851;28;20024;-86
2023/05/13 12:12:43;;;;;;;7.80;4.07;;;;;;;;;;5084276;28;20027;-85
2023/05/13 12:15:19;;;;;;;5.45;3.25;;;;;;;;;;5085062;28;20016;-86
2023/05/13 12:17:45;;;;;;;5.80;3.47;;;;;;;;;;5078993;28;20028;-85
2023/05/13 12:20:18;;;;;;;6.50;3.53;;;;;;;;;;5083570;28;20032;-85
2023/05/13 12:22:44;;;;;;;11.38;3.97;;;;;;;;;;5081355;28;20024;-85
2023/05/13 12:25:44;;;;;;;5.38;3.20;;;;;;;;;;5075795;28;20392;-86
2023/05/13 12:28:09;;;;;;;5.00;3.55;;;;;;;;;;5072294;28;20443;-86
2023/05/13 12:30:40;;;;;;;6.50;4.55;;;;;;;;;;5082105;28;20048;-86
2023/05/13 12:33:12;;;;;;;9.45;4.10;;;;;;;;;;5087132;28;20111;-85
2023/05/13 12:35:37;;;;;;;4.82;3.70;;;;;;;;;;5079940;28;20531;-87
2023/05/13 12:38:04;;;;;;;7.10;3.47;;;;;;;;;;5079694;28;20079;-86
2023/05/13 12:40:30;;;;;;;4.70;3.13;;;;;;;;;;5082997;28;20098;-86
2023/05/13 12:42:57;;;;;;;5.60;3.33;;;;;;;;;;5074318;28;20027;-86
2023/05/13 12:45:26;;;;;;;6.60;3.80;;;;;;;;;;5080464;28;20107;-87
2023/05/13 12:47:52;;;;;;;8.45;3.55;;;;;;;;;;5076589;28;20077;-86
2023/05/13 12:50:18;;;;;;;5.95;3.72;;;;;;;;;;5080222;28;20111;-86
2023/05/13 12:52:43;;;;;;;5.13;3.00;;;;;;;;;;5078692;28;20028;-86
2023/05/13 12:55:09;;;;;;;6.57;3.55;;;;;;;;;;5078156;28;20468;-86
2023/05/13 12:57:34;;;;;;;6.32;3.58;;;;;;;;;;5072523;28;20066;-88
2023/05/13 12:59:59;;;;;;;6.80;3.63;;;;;;;;;;5074758;28;20035;-86
2023/05/13 13:02:25;;;;;;;6.55;3.13;;;;;;;;;;5081984;28;20041;-86
2023/05/13 13:04:51;;;;;;;13.35;3.22;;;;;;;;;;5080443;28;20110;-86
2023/05/13 13:07:16;;;;;;;4.35;3.03;;;;;;;;;;5072267;28;20111;-86
2023/05/13 13:09:41;;;;;;;4.35;3.13;;;;;;;;;;5076112;28;20099;-87
2023/05/13 13:12:07;;;;;;;6.45;3.42;;;;;;;;;;5079394;28;20036;-85
2023/05/13 13:14:32;;;;;;;6.13;3.85;;;;;;;;;;5081731;28;20017;-86
2023/05/13 13:16:58;;;;;;;8.07;3.65;;;;;;;;;;5074170;28;20043;-85
2023/05/13 13:19:23;;;;;;;6.18;3.15;;;;;;;;;;5075799;28;20032;-84
2023/05/13 13:21:48;;;;;;;5.82;3.33;;;;;;;;;;5073276;28;20408;-83
2023/05/13 13:24:14;;;;;;;5.20;3.33;;;;;;;;;;5092064;28;20027;-84
2023/05/13 13:26:39;;;;;;;5.05;3.38;;;;;;;;;;5072842;28;20025;-84
2023/05/13 13:29:05;;;;;;;6.72;3.50;;;;;;;;;;5077575;28;20098;-84
2023/05/13 13:31:30;;;;;;;8.93;4.10;;;;;;;;;;5079359;28;20024;-85
2023/05/13 13:33:57;;;;;;;5.15;3.00;;;;;;;;;;5085649;28;20028;-84
2023/05/13 13:36:23;;;;;;;10.65;4.28;;;;;;;;;;5078115;28;20023;-84
2023/05/13 13:38:49;;;;;;;5.68;3.28;;;;;;;;;;5082906;28;20507;-84
2023/05/13 13:41:15;;;;;;;4.57;3.28;;;;;;;;;;5071744;28;20044;-85
2023/05/13 13:43:40;;;;;;;6.18;3.25;;;;;;;;;;5082447;28;20124;-86
2023/05/13 13:46:06;;;;;;;4.85;3.50;;;;;;;;;;5078645;28;20028;-84
2023/05/13 13:48:31;;;;;;;5.97;2.88;;;;;;;;;;5069292;28;20100;-84
2023/05/13 13:50:58;;;;;;;8.20;3.15;;;;;;;;;;5105241;28;20035;-84
2023/05/13 13:53:23;;;;;;;5.30;2.88;;;;;;;;;;5076472;28;20041;-84
2023/05/13 13:55:49;;;;;;;5.07;3.00;;;;;;;;;;5075742;28;20062;-85
2023/05/13 13:58:14;;;;;;;4.82;2.63;;;;;;;;;;5070838;28;20500;-86
2023/05/13 14:00:40;;;;;;;4.78;2.55;;;;;;;;;;5080128;28;20111;-85
2023/05/13 14:03:05;;;;;;;4.45;3.05;;;;;;;;;;5083460;28;20024;-85
2023/05/13 14:05:30;;;;;;;5.15;3.22;;;;;;;;;;5080500;28;20430;-85
2023/05/13 14:07:56;;;;;;;4.88;3.25;;;;;;;;;;5088501;28;20027;-85
2023/05/13 14:10:21;;;;;;;7.80;3.08;;;;;;;;;;5077937;28;20520;-87
2023/05/13 14:12:47;;;;;;;7.95;3.38;;;;;;;;;;5078457;28;20025;-85
2023/05/13 14:15:12;;;;;;;11.63;3.65;;;;;;;;;;5066339;28;20468;-86
2023/05/13 14:17:38;;;;;;;5.28;4.03;;;;;;;;;;5078094;28;20032;-84
2023/05/13 14:20:05;;;;;;;5.22;2.83;;;;;;;;;;5080329;28;20024;-84
2023/05/13 14:22:30;;;;;;;4.25;2.97;;;;;;;;;;5071745;28;20842;-84
2023/05/13 14:24:55;;;;;;;4.00;2.33;;;;;;;;;;5083109;28;20028;-85
2023/05/13 14:27:23;;;;;;;3.65;2.30;;;;;;;;;;5085608;28;20054;-84
2023/05/13 14:29:49;;;;;;;3.95;2.90;;;;;;;;;;5076350;28;20028;-85
2023/05/13 14:32:14;;;;;;;5.85;3.40;;;;;;;;;;5080057;28;20426;-85
2023/05/13 14:34:40;;;;;;;11.15;6.63;;;;;;;;;;5074873;28;20372;-85
2023/05/13 14:37:06;;;;;;;6.45;4.35;;;;;;;;;;5070223;28;20094;-83
2023/05/13 14:39:31;;;;;;;6.30;3.47;;;;;;;;;;5076727;28;20056;-87
2023/05/13 14:41:56;;;;;;;5.28;3.17;;;;;;;;;;5076939;28;20503;-86
2023/05/13 14:44:22;;;;;;;5.95;2.67;;;;;;;;;;5118517;27;20039;-86